Pisek, ND (58273)

3:22 AM CST on December 21, 2014 (GMT -0600)
Hoople nd | Change Station
CLOSE
Current Station
Personal Weather Station
Location: Hoople, ND
Elevation: 870 ft
Nearby Weather Stations
Active Advisory: Special Statement

Elev 870 ft 48.52 °N, 97.62 °W | Updated 10 minutes ago

Snow
Snow
27.6 °F
Feels Like 28 °F
N
2.0
Wind Variable Wind from South
Gusts 4.0 mph

Today
High -- | Low -- °F
--% Chance of Precip.
Yesterday
High -- | Low -- °F
Precip. -- in
8:19 AM 4:38 PM
Waning Crescent, 1% visible
Pressure 29.78 in
Visibility 9.0 miles
Clouds Overcast 500 ft
Windchill 28 °F
Dew Point 26 °F
Humidity 95%
Rainfall 0.00 in
Snow Depth Not available.
UV 0 out of 12
Pollen .10 out of 12
Air Quality Not available.
Flu Activity Not available.
SPECI KRDR 210908Z AUTO 20011KT 9SM R35/5500FT OVC005 M02/M02 A2978 RMK AO2

More Conditions Fewer Conditions

Pressure 29.78 in
Visibility 9.0 miles
Clouds Overcast 500 ft
Windchill 28 °F
Dew Point 26 °F
Humidity 95%
Rainfall 0.00 in
Snow Depth Not available.
UV 0 out of 12
Pollen .10 out of 12
Air Quality Not available.
Flu Activity Not available.
SPECI KRDR 210908Z AUTO 20011KT 9SM R35/5500FT OVC005 M02/M02 A2978 RMK AO2

More Conditions Fewer Conditions

10-Day Weather Forecast

Almanac

Astronomy

Dec. 21, 2014 Rise Set
Actual Time
Civil Twilight
Nautical Twilight
Astronomical Twilight
Moon
Length of Visible Light
Length of Day
Tomorrow will be .
, % of the Moon is Illuminated

Today's Extremes

State Highs State Lows

Community

WunderPhotos

Upload Photos

1,779,364 photos uploaded!

WunderBlogs® & News

Nearby

Air Quality

  Air Quality AQ Index Pollutant
Not available.

Snow Depth

Station Depth Elevation

Earthquake Activity

City Distance Mag. Time & Date
Minimum magnitude displayed is 2.5.

Coastal Water Temperatures

Place Temperature

Nearby Weather Stations